»·PEaware :: N17MA KSMO-KPSP

N17MA :: KSMO-KPSP

FLIGHT INFORMATION

Flight Status: Arrived
Operator: Privately registered:
United States
More flights under this callsign
Pilot: Diego M. (28112)
Aircraft: CESSNA 172 SKYHAWK
(C172)
More flights by this aircraft type
Origin: KSMO Santa Monica Mun
United States
Destination: KPSP Palm Springs Intl
United States
More flights between these airports :: More routes between these airports
Route: +
File this flight plan on PilotEdge
Remarks:
Altitude:
(Current/Filed)
0ft
Speed:
(Current/Filed)
0kts
Departed: 22-Mar-20 12:20 PM
Arrived: 22-Mar-20 01:16 PM
Distance/Time
Traveled:
98nm/0:56
Distance/Time
To Go:
Arrived

Flight Plot

Page will automatically refresh every two minutes.


Map Options




Map Legend


Flown Route
Filed Route
Departure Airport
Arrival Airport
Navaid (VOR, NDB)
Fix

Horizontal Profiles

Position Reports

Time Latitude Longitude Heading Altitude Ground
Speed
22-Mar-20 11:26 34.015845 -118.449862 315 181ft 0kts
22-Mar-20 11:27 34.015845 -118.449862 315 181ft 0kts
22-Mar-20 11:28 34.015845 -118.449862 315 181ft 0kts
22-Mar-20 11:29 34.015845 -118.449862 315 181ft 0kts
22-Mar-20 11:30 34.015845 -118.449862 315 181ft 0kts
22-Mar-20 11:31 34.015845 -118.449862 315 181ft 0kts
22-Mar-20 11:32 34.015845 -118.449862 315 181ft 0kts
22-Mar-20 11:34 34.015845 -118.449862 315 181ft 0kts
22-Mar-20 11:35 34.015845 -118.449862 315 181ft 0kts
22-Mar-20 11:36 34.015845 -118.449862 315 181ft 0kts
22-Mar-20 11:37 34.015845 -118.449862 315 181ft 0kts
22-Mar-20 11:38 34.015845 -118.449862 315 181ft 0kts
22-Mar-20 11:39 34.015845 -118.449862 315 181ft 0kts
22-Mar-20 11:40 34.015845 -118.449862 315 181ft 0kts
22-Mar-20 11:41 34.015845 -118.449862 315 181ft 0kts
22-Mar-20 11:42 34.015845 -118.449862 315 181ft 0kts
22-Mar-20 11:43 34.015845 -118.449862 315 181ft 0kts
22-Mar-20 11:44 34.015845 -118.449862 315 181ft 0kts
22-Mar-20 11:45 34.015845 -118.449862 315 181ft 0kts
22-Mar-20 11:46 34.015845 -118.449862 315 181ft 0kts
22-Mar-20 11:47 34.015845 -118.449862 315 181ft 0kts
22-Mar-20 11:48 34.015845 -118.449862 315 181ft 0kts
22-Mar-20 11:49 34.015845 -118.449862 315 181ft 0kts
22-Mar-20 11:50 34.015845 -118.449862 315 181ft 0kts
22-Mar-20 11:50 34.015845 -118.449862 315 181ft 0kts
22-Mar-20 11:52 34.015845 -118.449862 315 181ft 0kts
22-Mar-20 11:53 34.015845 -118.449862 315 181ft 0kts
22-Mar-20 11:53 34.015845 -118.449862 315 181ft 0kts
22-Mar-20 11:54 34.015845 -118.449862 315 181ft 0kts
22-Mar-20 11:56 34.015845 -118.449862 315 181ft 0kts
22-Mar-20 11:57 34.016296 -118.449660 46 181ft 10kts
22-Mar-20 11:57 34.018576 -118.446957 46 181ft 16kts
22-Mar-20 11:58 34.019890 -118.445583 354 181ft 0kts
22-Mar-20 12:00 34.019890 -118.445583 354 181ft 0kts
22-Mar-20 12:00 34.019890 -118.445583 354 181ft 0kts
22-Mar-20 12:01 34.019890 -118.445583 354 181ft 0kts
22-Mar-20 12:02 34.019890 -118.445583 354 181ft 0kts
22-Mar-20 12:03 34.019890 -118.445583 354 181ft 0kts
22-Mar-20 12:04 34.019890 -118.445583 354 181ft 0kts
22-Mar-20 12:05 34.019890 -118.445583 354 181ft 0kts
22-Mar-20 12:06 34.019890 -118.445583 354 181ft 0kts
22-Mar-20 12:07 34.019890 -118.445583 354 181ft 0kts
22-Mar-20 12:08 34.019890 -118.445583 354 181ft 0kts
22-Mar-20 12:09 34.019890 -118.445583 354 181ft 0kts
22-Mar-20 12:10 34.019890 -118.445583 354 181ft 0kts
22-Mar-20 12:11 34.019890 -118.445583 354 181ft 0kts
22-Mar-20 12:12 34.019890 -118.445583 354 181ft 0kts
22-Mar-20 12:13 34.019890 -118.445583 354 181ft 0kts
22-Mar-20 12:14 34.019890 -118.445583 354 181ft 0kts
22-Mar-20 12:15 34.019890 -118.445583 354 181ft 0kts
22-Mar-20 12:16 34.019890 -118.445583 354 181ft 0kts
22-Mar-20 12:17 34.019890 -118.445583 354 181ft 0kts
22-Mar-20 12:18 34.020026 -118.445599 353 181ft 5kts
22-Mar-20 12:19 34.015166 -118.452096 224 286ft 78kts
22-Mar-20 12:20 34.000118 -118.472308 249 777ft 82kts
22-Mar-20 12:21 34.014026 -118.475758 45 1341ft 74kts
22-Mar-20 12:22 34.027355 -118.456150 56 1842ft 73kts
22-Mar-20 12:23 34.037177 -118.431965 61 2082ft 86kts
22-Mar-20 12:24 34.053488 -118.408916 47 2008ft 94kts
22-Mar-20 12:25 34.072049 -118.387153 46 2006ft 92kts
22-Mar-20 12:26 34.092395 -118.364423 49 2166ft 106kts
22-Mar-20 12:27 34.113203 -118.337302 50 2181ft 116kts
22-Mar-20 12:28 34.135042 -118.310059 50 2068ft 102kts
22-Mar-20 12:29 34.149384 -118.283213 71 1977ft 93kts
22-Mar-20 12:30 34.144700 -118.250703 110 2036ft 107kts
22-Mar-20 12:31 34.134434 -118.217108 109 2327ft 104kts
22-Mar-20 12:32 34.125000 -118.183500 106 2828ft 108kts
22-Mar-20 12:33 34.114627 -118.148795 106 3333ft 111kts
22-Mar-20 12:34 34.104219 -118.113443 106 3837ft 112kts
22-Mar-20 12:35 34.093822 -118.076852 106 4212ft 121kts
22-Mar-20 12:36 34.082560 -118.036696 106 4491ft 127kts
22-Mar-20 12:37 34.070806 -117.996411 106 4796ft 127kts
22-Mar-20 12:38 34.058712 -117.956264 106 5034ft 131kts
22-Mar-20 12:39 34.045816 -117.914084 106 5045ft 135kts
22-Mar-20 12:40 34.033862 -117.871839 106 5050ft 126kts
22-Mar-20 12:41 34.025370 -117.831593 106 5040ft 122kts
22-Mar-20 12:42 34.020015 -117.789574 92 5041ft 131kts
22-Mar-20 12:43 34.015668 -117.745391 92 5051ft 133kts
22-Mar-20 12:44 34.011502 -117.700646 92 5059ft 134kts
22-Mar-20 12:45 34.007542 -117.655792 92 5068ft 135kts
22-Mar-20 12:46 34.003759 -117.610560 92 5076ft 135kts
22-Mar-20 12:47 34.000125 -117.565315 92 5084ft 135kts
22-Mar-20 12:48 33.996485 -117.520148 92 5092ft 135kts
22-Mar-20 12:49 33.992806 -117.474740 92 5101ft 136kts
22-Mar-20 12:50 33.989067 -117.428499 92 5114ft 140kts
22-Mar-20 12:51 33.985278 -117.381520 92 5124ft 141kts
22-Mar-20 12:52 33.981408 -117.334181 93 5132ft 141kts
22-Mar-20 12:53 33.977215 -117.287195 93 5137ft 140kts
22-Mar-20 12:54 33.972664 -117.240710 93 5091ft 140kts
22-Mar-20 12:55 33.969582 -117.195130 93 4994ft 132kts
22-Mar-20 12:56 33.968976 -117.151037 97 4888ft 131kts
22-Mar-20 12:57 33.965263 -117.107906 100 5008ft 123kts
22-Mar-20 12:58 33.960550 -117.065000 101 5026ft 137kts
22-Mar-20 12:59 33.954755 -117.018407 101 5023ft 142kts
22-Mar-20 13:00 33.948606 -116.971175 101 5018ft 142kts
22-Mar-20 13:01 33.942153 -116.923817 101 5015ft 143kts
22-Mar-20 13:02 33.935406 -116.876635 101 5014ft 143kts
22-Mar-20 13:03 33.929033 -116.829351 95 5012ft 142kts
22-Mar-20 13:04 33.927724 -116.781838 94 5007ft 139kts
22-Mar-20 13:05 33.926960 -116.735633 94 4999ft 136kts
22-Mar-20 13:06 33.923876 -116.689035 94 5002ft 140kts
22-Mar-20 13:07 33.920034 -116.642111 94 5007ft 140kts
22-Mar-20 13:08 33.915624 -116.597643 98 4115ft 125kts
22-Mar-20 13:09 33.907680 -116.559496 117 3297ft 106kts
22-Mar-20 13:10 33.889532 -116.530269 131 2585ft 110kts
22-Mar-20 13:11 33.867480 -116.505372 143 1991ft 105kts
22-Mar-20 13:12 33.845288 -116.485757 143 1644ft 94kts
22-Mar-20 13:13 33.822989 -116.470382 175 1263ft 82kts
22-Mar-20 13:14 33.814104 -116.490164 308 738ft 72kts
22-Mar-20 13:15 33.827492 -116.502850 323 481ft 24kts
22-Mar-20 13:16 33.829942 -116.504513 52 481ft 0kts
22-Mar-20 13:17 33.827591 -116.501961 142 481ft 27kts
22-Mar-20 13:18 33.822087 -116.496858 142 481ft 20kts
22-Mar-20 13:19 33.822215 -116.495742 36 481ft 10kts
22-Mar-20 13:20 33.822676 -116.495990 322 481ft 0kts

Navigation Log

Ident Type
Flight plan parsing failed, navigation log unavailable